createdAt,value
2018-08-09T02:04:14.270Z,99.90
2018-08-09T02:06:42.802Z,99.90
2018-08-09T02:09:12.392Z,99.90
2018-08-09T02:11:40.909Z,99.90
2018-08-09T02:14:09.443Z,99.90
2018-08-09T02:16:38.136Z,99.90
2018-08-09T02:19:08.855Z,99.90
2018-08-09T02:21:37.594Z,99.90
2018-08-09T02:24:06.112Z,99.90
2018-08-09T02:26:34.700Z,99.90
2018-08-09T02:29:03.260Z,99.90
2018-08-09T02:31:31.743Z,99.90
2018-08-09T02:34:00.280Z,99.90
2018-08-09T02:36:28.791Z,99.90
2018-08-09T02:38:57.383Z,99.90
2018-08-09T02:41:26.164Z,99.90
2018-08-09T02:43:54.665Z,99.90
2018-08-09T02:46:23.244Z,99.90
2018-08-09T02:48:51.855Z,99.90
2018-08-09T02:51:20.382Z,99.90
2018-08-09T02:53:48.929Z,99.90
2018-08-09T02:56:17.415Z,99.90
2018-08-09T02:58:46.095Z,99.90
2018-08-09T03:01:14.740Z,99.90
2018-08-09T03:03:43.443Z,99.90
2018-08-09T03:06:12.059Z,99.90
2018-08-09T03:08:40.751Z,99.90
2018-08-09T03:11:09.665Z,99.90
2018-08-09T03:13:38.217Z,99.90
2018-08-09T03:16:06.753Z,99.90
2018-08-09T03:18:35.297Z,99.90
2018-08-09T03:21:03.913Z,99.90
2018-08-09T03:23:32.407Z,99.90
2018-08-09T03:26:00.864Z,99.90
2018-08-09T03:28:29.324Z,99.90
2018-08-09T03:30:57.957Z,99.90
2018-08-09T03:33:26.651Z,99.90
2018-08-09T03:35:55.137Z,99.90
2018-08-09T03:38:23.809Z,99.90
2018-08-09T03:40:52.332Z,99.90
2018-08-09T03:43:20.866Z,99.90
2018-08-09T03:45:49.552Z,99.90
2018-08-09T03:48:18.151Z,99.90
2018-08-09T03:50:46.687Z,99.90
2018-08-09T03:53:15.248Z,99.90
2018-08-09T03:55:44.008Z,99.90
2018-08-09T03:58:12.812Z,99.90
2018-08-09T04:00:41.434Z,99.90
2018-08-09T04:03:09.908Z,99.90
2018-08-09T04:05:38.478Z,99.90
2018-08-09T04:08:06.973Z,99.90
2018-08-09T04:10:35.452Z,99.90
2018-08-09T04:13:04.088Z,99.90
2018-08-09T04:15:32.550Z,99.90
2018-08-09T04:18:01.121Z,99.90
2018-08-09T04:20:29.984Z,99.90
2018-08-09T04:22:58.440Z,99.90
2018-08-09T04:25:27.100Z,99.90
2018-08-09T04:27:55.612Z,99.90
2018-08-09T04:30:24.133Z,99.90
2018-08-09T04:32:52.706Z,99.90
2018-08-09T04:35:21.351Z,99.90
2018-08-09T04:37:49.919Z,99.90
2018-08-09T04:40:18.438Z,99.90
2018-08-09T04:42:46.932Z,99.90
2018-08-09T04:45:15.469Z,99.90
2018-08-09T04:47:44.073Z,99.90
2018-08-09T04:50:12.734Z,99.90
2018-08-09T04:52:41.228Z,99.90
2018-08-09T04:55:09.813Z,99.90
2018-08-09T04:57:38.459Z,99.90
2018-08-09T05:00:07.010Z,99.90
2018-08-09T05:02:35.667Z,99.90
2018-08-09T05:05:04.459Z,99.90
2018-08-09T05:07:33.033Z,99.90
2018-08-09T05:10:06.957Z,99.90
2018-08-09T05:12:35.678Z,99.90
2018-08-09T05:15:04.417Z,99.90
2018-08-09T05:17:33.531Z,99.90
2018-08-09T05:20:02.423Z,99.90
2018-08-09T05:22:30.995Z,99.90
2018-08-09T05:24:59.664Z,99.90
2018-08-09T05:27:28.466Z,99.90
2018-08-09T05:29:57.042Z,99.90
2018-08-09T05:32:25.792Z,99.90
2018-08-09T05:34:54.376Z,99.90
2018-08-09T05:37:23.133Z,99.90
2018-08-09T05:39:51.889Z,99.90
2018-08-09T05:42:20.715Z,99.90
2018-08-09T05:44:49.316Z,99.90
2018-08-09T05:47:17.912Z,99.90
2018-08-09T05:49:46.682Z,99.90
2018-08-09T05:52:15.643Z,99.90
2018-08-09T05:54:44.208Z,99.90
2018-08-09T05:57:13.044Z,99.90
2018-08-09T05:59:41.678Z,99.90
2018-08-09T06:02:10.616Z,99.90
2018-08-09T06:04:39.316Z,99.90
2018-08-09T06:07:08.174Z,99.90
2018-08-09T06:09:36.729Z,99.90
2018-08-09T06:12:05.318Z,99.90
2018-08-09T06:14:34.095Z,99.90
2018-08-09T06:17:02.956Z,99.90
2018-08-09T06:19:31.634Z,99.90
2018-08-09T06:22:00.382Z,99.90
2018-08-09T06:24:29.059Z,99.90
2018-08-09T06:26:57.589Z,99.90
2018-08-09T06:29:26.208Z,99.90
2018-08-09T06:31:55.205Z,99.90
2018-08-09T06:34:23.762Z,99.90
2018-08-09T06:36:52.233Z,99.90
2018-08-09T06:39:20.855Z,99.90
2018-08-09T06:41:50.013Z,99.90
2018-08-09T06:44:18.742Z,99.90
2018-08-09T06:46:48.158Z,99.90
2018-08-09T06:49:16.902Z,99.90
2018-08-09T06:51:45.549Z,99.90
2018-08-09T06:54:14.416Z,99.90
2018-08-09T06:56:43.020Z,99.90
2018-08-09T06:59:12.851Z,99.90
2018-08-09T07:01:41.331Z,99.90
2018-08-09T07:04:09.964Z,99.90
2018-08-09T07:06:38.599Z,99.90
2018-08-09T07:09:09.348Z,99.90
2018-08-09T07:11:38.366Z,99.90
2018-08-09T07:14:06.987Z,99.90
2018-08-09T07:16:35.675Z,99.90
2018-08-09T07:19:04.463Z,99.90
2018-08-09T07:21:32.953Z,99.90
2018-08-09T07:24:01.508Z,99.90
2018-08-09T07:26:30.138Z,99.90
2018-08-09T07:28:58.844Z,99.90
2018-08-09T07:31:27.610Z,99.90
2018-08-09T07:33:56.095Z,99.90
2018-08-09T07:36:24.637Z,99.90
2018-08-09T07:38:53.167Z,99.90
2018-08-09T07:41:21.711Z,99.90
2018-08-09T07:43:50.243Z,99.90
2018-08-09T07:46:18.760Z,99.90
2018-08-09T07:48:47.284Z,99.90
2018-08-09T07:51:15.806Z,99.90
2018-08-09T07:53:44.380Z,99.90
2018-08-09T07:56:13.631Z,99.90
2018-08-09T07:58:43.001Z,99.00
2018-08-09T08:01:11.489Z,99.10
2018-08-09T08:03:40.038Z,99.10
2018-08-09T08:06:08.742Z,98.60
2018-08-09T08:08:37.517Z,97.90
2018-08-09T08:11:06.080Z,98.10
2018-08-09T08:13:34.848Z,97.70
2018-08-09T08:16:03.709Z,96.70
2018-08-09T08:18:32.175Z,95.80
2018-08-09T08:21:00.915Z,95.10
2018-08-09T08:23:30.517Z,94.50
2018-08-09T08:26:00.240Z,93.50
2018-08-09T08:28:28.860Z,92.80
2018-08-09T08:30:57.486Z,91.90
2018-08-09T08:33:25.983Z,91.90
2018-08-09T08:35:54.504Z,91.50
2018-08-09T08:38:23.222Z,91.40
2018-08-09T08:40:52.499Z,90.70
2018-08-09T08:43:21.374Z,90.50
2018-08-09T08:45:49.956Z,89.60
2018-08-09T08:48:18.774Z,89.40
2018-08-09T08:50:47.509Z,89.40
2018-08-09T08:53:16.116Z,89.60
2018-08-09T08:55:44.805Z,86.90
2018-08-09T08:58:13.415Z,87.90
2018-08-09T09:00:41.928Z,85.90
2018-08-09T09:03:10.457Z,84.80
2018-08-09T09:05:39.151Z,83.70
2018-08-09T09:08:07.756Z,82.10
2018-08-09T09:10:37.501Z,81.70
2018-08-09T09:13:06.576Z,81.20
2018-08-09T09:15:36.132Z,81.10
2018-08-09T09:18:05.286Z,81.30
2018-08-09T09:20:35.074Z,78.50
2018-08-09T09:23:03.719Z,78.60
2018-08-09T09:25:32.250Z,78.90
2018-08-09T09:28:00.851Z,79.10
2018-08-09T09:30:29.578Z,78.60
2018-08-09T09:32:58.127Z,77.40
2018-08-09T09:35:27.432Z,77.30
2018-08-09T09:37:56.498Z,77.20
2018-08-09T09:40:25.243Z,76.60
2018-08-09T09:42:55.819Z,74.20
2018-08-09T09:45:24.423Z,74.30
2018-08-09T09:47:53.361Z,74.30
2018-08-09T09:50:22.686Z,72.40
2018-08-09T09:52:51.468Z,73.20
2018-08-09T09:55:19.976Z,71.60
2018-08-09T09:57:48.726Z,71.10
2018-08-09T10:00:22.653Z,70.00
2018-08-09T10:02:51.459Z,69.50
2018-08-09T10:05:20.063Z,68.60
2018-08-09T10:07:48.572Z,67.90
2018-08-09T10:10:17.159Z,67.50
2018-08-09T10:12:45.776Z,65.90
2018-08-09T10:15:14.561Z,64.60
2018-08-09T10:17:43.158Z,64.40
2018-08-09T10:20:11.704Z,65.00
2018-08-09T10:22:40.203Z,63.30
2018-08-09T10:25:09.022Z,63.30
2018-08-09T10:27:37.840Z,61.60
2018-08-09T10:30:06.850Z,60.70
2018-08-09T10:32:35.448Z,59.50
2018-08-09T10:35:04.035Z,59.20
2018-08-09T10:37:32.767Z,59.00
2018-08-09T10:40:01.555Z,58.00
2018-08-09T10:42:30.176Z,58.30
2018-08-09T10:44:58.769Z,58.90
2018-08-09T10:50:07.134Z,57.30
2018-08-09T10:52:35.888Z,57.10
2018-08-09T10:55:04.562Z,57.40
2018-08-09T10:57:33.086Z,56.70
2018-08-09T11:00:04.318Z,57.10
2018-08-09T11:02:32.818Z,56.90
2018-08-09T11:05:01.544Z,56.10
2018-08-09T11:07:30.096Z,56.30
2018-08-09T11:09:58.676Z,57.10
2018-08-09T11:12:27.284Z,56.00
2018-08-09T11:14:55.944Z,55.20
2018-08-09T11:17:24.710Z,55.30
2018-08-09T11:19:53.297Z,54.90
2018-08-09T11:22:21.922Z,54.50
2018-08-09T11:24:50.442Z,54.40
2018-08-09T11:27:18.992Z,54.90
2018-08-09T11:29:47.621Z,54.60
2018-08-09T11:32:16.284Z,54.20
2018-08-09T11:34:44.958Z,54.70
2018-08-09T11:37:13.799Z,55.70
2018-08-09T11:39:44.491Z,55.00
2018-08-09T11:42:13.260Z,54.20
2018-08-09T11:44:41.831Z,54.20
2018-08-09T11:47:10.742Z,53.20
2018-08-09T11:49:39.303Z,53.20
2018-08-09T11:52:07.880Z,53.70
2018-08-09T11:54:36.499Z,52.80
2018-08-09T11:57:05.134Z,53.30
2018-08-09T11:59:33.685Z,51.90
2018-08-09T12:02:02.493Z,51.70
2018-08-09T12:04:31.286Z,51.80
2018-08-09T12:07:00.082Z,52.20
2018-08-09T12:09:29.656Z,53.00
2018-08-09T12:11:58.371Z,51.90
2018-08-09T12:14:27.679Z,52.90
2018-08-09T12:16:56.389Z,52.30
2018-08-09T12:19:25.023Z,52.30
2018-08-09T12:21:54.127Z,52.70
2018-08-09T12:24:23.175Z,53.50
2018-08-09T12:26:52.604Z,53.90
2018-08-09T12:29:21.182Z,53.10
2018-08-09T12:31:49.746Z,53.30
2018-08-09T12:34:18.844Z,53.80
2018-08-09T12:36:48.088Z,53.10
2018-08-09T12:39:17.279Z,52.30
2018-08-09T12:41:45.921Z,51.70
2018-08-09T12:44:14.437Z,51.90
2018-08-09T12:46:43.012Z,50.60
2018-08-09T12:49:11.758Z,51.60
2018-08-09T12:51:40.678Z,52.40
2018-08-09T12:54:09.654Z,51.40
2018-08-09T12:56:38.216Z,50.20
2018-08-09T12:59:06.765Z,50.80
2018-08-09T13:01:35.280Z,50.70
2018-08-09T13:04:04.003Z,51.40
2018-08-09T13:06:32.816Z,51.80
2018-08-09T13:09:02.305Z,51.70
2018-08-09T13:11:31.098Z,50.50
2018-08-09T13:13:59.720Z,50.20
2018-08-09T13:16:28.218Z,51.20
2018-08-09T13:18:56.944Z,51.60
2018-08-09T13:21:25.903Z,51.60
2018-08-09T13:23:54.397Z,51.40
2018-08-09T13:26:23.062Z,51.70
2018-08-09T13:28:51.626Z,50.60
2018-08-09T13:31:20.697Z,50.20
2018-08-09T13:33:49.289Z,50.20
2018-08-09T13:36:17.968Z,50.50
2018-08-09T13:38:46.522Z,50.40
2018-08-09T13:41:15.106Z,50.50
2018-08-09T13:43:43.749Z,49.70
2018-08-09T13:46:12.339Z,57.60
2018-08-09T13:48:40.973Z,64.30
2018-08-09T13:51:09.759Z,67.50
2018-08-09T13:53:38.410Z,72.80
2018-08-09T13:56:07.339Z,79.60
2018-08-09T13:58:35.980Z,86.10
2018-08-09T14:01:05.119Z,90.60
2018-08-09T14:03:33.813Z,93.30
2018-08-09T14:06:02.709Z,96.50
2018-08-09T14:08:31.525Z,99.90
2018-08-09T14:11:00.245Z,99.90
2018-08-09T14:13:29.173Z,99.90
2018-08-09T14:15:58.117Z,99.90
2018-08-09T14:18:26.758Z,99.90
2018-08-09T14:20:55.434Z,99.90
2018-08-09T14:23:24.548Z,99.90
2018-08-09T14:25:53.166Z,99.90
2018-08-09T14:28:21.816Z,99.90
2018-08-09T14:30:50.392Z,99.90
2018-08-09T14:50:36.825Z,99.90
2018-08-09T14:53:05.538Z,99.90
2018-08-09T14:55:34.259Z,99.90
2018-08-09T14:58:03.334Z,99.90
2018-08-09T15:00:31.911Z,99.90
2018-08-09T15:03:00.624Z,99.90
2018-08-09T15:05:29.786Z,99.90
2018-08-09T15:07:58.583Z,99.90
2018-08-09T15:10:27.174Z,99.90
2018-08-09T15:12:55.758Z,99.90
2018-08-09T15:15:24.369Z,99.90
2018-08-09T15:17:53.054Z,99.90
2018-08-09T15:20:21.675Z,99.90
2018-08-09T15:22:50.309Z,99.90
2018-08-09T15:25:18.957Z,99.90
2018-08-09T15:27:47.598Z,99.90
2018-08-09T15:30:20.667Z,99.90
2018-08-09T15:32:49.878Z,99.90
2018-08-09T15:35:18.645Z,99.90
2018-08-09T15:37:47.315Z,99.90
2018-08-09T15:40:16.125Z,99.90
2018-08-09T15:42:44.874Z,99.90
2018-08-09T15:45:16.001Z,99.90
2018-08-09T15:47:44.951Z,99.90
2018-08-09T15:50:16.253Z,99.90
2018-08-09T15:52:46.753Z,99.90
2018-08-09T15:55:16.911Z,99.90
2018-08-09T15:57:45.952Z,99.90
2018-08-09T16:00:18.512Z,99.90
2018-08-09T16:02:47.976Z,99.90
2018-08-09T16:05:16.824Z,99.90
2018-08-09T16:07:45.944Z,99.90
2018-08-09T16:10:16.939Z,99.90
2018-08-09T16:12:46.260Z,99.90
2018-08-09T16:15:18.410Z,99.90
2018-08-09T16:17:48.292Z,99.90
2018-08-09T16:20:17.436Z,99.90
2018-08-09T16:22:46.786Z,99.90
2018-08-09T16:25:16.750Z,99.90
2018-08-09T16:27:47.341Z,99.90
2018-08-09T16:30:20.713Z,99.90
2018-08-09T16:32:49.474Z,99.90
2018-08-09T16:35:19.331Z,99.90
2018-08-09T16:37:48.444Z,99.90
2018-08-09T16:40:19.165Z,99.90
2018-08-09T16:42:48.297Z,99.90
2018-08-09T16:45:18.372Z,99.90
2018-08-09T16:47:47.300Z,99.90
2018-08-09T16:50:18.749Z,99.90
2018-08-09T16:52:48.732Z,99.90
2018-08-09T16:55:18.450Z,99.90
2018-08-09T16:57:47.281Z,99.90
2018-08-09T17:00:17.655Z,99.90
2018-08-09T17:02:46.391Z,99.90
2018-08-09T17:05:18.831Z,99.90
2018-08-09T17:07:47.673Z,99.90
2018-08-09T17:10:19.004Z,99.90
2018-08-09T17:12:47.795Z,99.90
2018-08-09T17:15:19.269Z,99.90
2018-08-09T17:17:47.986Z,99.90
2018-08-09T17:20:25.943Z,99.90
2018-08-09T17:22:54.734Z,99.90
2018-08-09T17:25:23.552Z,99.90
2018-08-09T17:27:52.424Z,99.90
2018-08-09T17:30:23.620Z,99.90
2018-08-09T17:32:52.396Z,99.90
2018-08-09T17:35:21.557Z,99.90
2018-08-09T17:37:50.424Z,99.90
2018-08-09T17:40:25.304Z,99.90
2018-08-09T17:42:55.102Z,99.90
2018-08-09T17:45:30.143Z,99.90
2018-08-09T17:47:59.055Z,99.90
2018-08-09T17:50:27.776Z,99.90
2018-08-09T17:52:58.127Z,99.90
2018-08-09T17:55:26.889Z,99.90
2018-08-09T17:57:55.608Z,99.90
2018-08-09T18:00:26.047Z,99.90
2018-08-09T18:02:54.924Z,99.90
2018-08-09T18:05:23.655Z,99.90
2018-08-09T18:07:53.093Z,99.90
2018-08-09T18:10:25.224Z,99.90
2018-08-09T18:12:54.075Z,99.90
2018-08-09T18:15:24.128Z,99.90
2018-08-09T18:17:53.393Z,99.90
2018-08-09T18:20:24.431Z,99.90
2018-08-09T18:22:53.293Z,99.90
2018-08-09T18:25:21.980Z,99.90
2018-08-09T18:27:50.622Z,99.90
2018-08-09T18:30:20.143Z,99.90
2018-08-09T18:32:49.015Z,99.90
2018-08-09T18:35:18.499Z,99.90
2018-08-09T18:37:47.627Z,99.90
2018-08-09T18:40:21.090Z,99.90
2018-08-09T18:42:49.822Z,99.90
2018-08-09T18:45:18.922Z,99.90
2018-08-09T18:47:47.645Z,99.90
2018-08-09T18:50:18.573Z,99.90
2018-08-09T18:52:47.497Z,99.90
2018-08-09T18:55:17.797Z,99.90
2018-08-09T18:57:46.437Z,99.90
2018-08-09T19:00:20.619Z,99.90
2018-08-09T19:02:49.643Z,99.90
2018-08-09T19:05:18.533Z,99.90
2018-08-09T19:07:47.303Z,99.90
2018-08-09T19:10:17.614Z,99.90
2018-08-09T19:12:46.242Z,99.90
2018-08-09T19:15:14.964Z,99.90
2018-08-09T19:17:43.972Z,99.90
2018-08-09T19:20:17.335Z,99.90
2018-08-09T19:22:46.278Z,99.90
2018-08-09T19:25:15.229Z,99.90
2018-08-09T19:27:44.102Z,99.90
2018-08-09T19:30:14.157Z,99.90
2018-08-09T19:32:42.982Z,99.90
2018-08-09T19:35:13.362Z,99.90
2018-08-09T19:37:42.095Z,99.90
2018-08-09T19:40:12.563Z,99.90
2018-08-09T19:42:41.155Z,99.90
2018-08-09T19:45:12.305Z,99.90
2018-08-09T19:47:40.947Z,99.90
2018-08-09T19:50:11.648Z,99.90
2018-08-09T19:52:40.231Z,99.90
2018-08-09T19:55:11.951Z,99.90
2018-08-09T19:57:42.040Z,99.90
2018-08-09T20:00:12.994Z,99.90
2018-08-09T20:02:41.606Z,99.90
2018-08-09T20:05:11.337Z,99.90
2018-08-09T20:07:39.927Z,99.90
2018-08-09T20:10:10.121Z,99.90
2018-08-09T20:12:38.776Z,99.90
2018-08-09T20:15:09.935Z,99.90
2018-08-09T20:17:38.462Z,99.90
2018-08-09T20:20:07.730Z,99.90
2018-08-09T20:22:36.485Z,99.90
2018-08-09T20:25:06.290Z,99.90
2018-08-09T20:27:35.047Z,99.90
2018-08-09T20:30:04.922Z,99.90
2018-08-09T20:32:33.686Z,99.90
2018-08-09T20:35:02.182Z,99.90
2018-08-09T20:37:30.782Z,99.90
2018-08-09T20:39:59.360Z,99.90
2018-08-09T20:42:27.954Z,99.90
2018-08-09T20:44:56.519Z,99.90
2018-08-09T20:47:25.079Z,99.90
2018-08-09T20:49:53.875Z,99.90
2018-08-09T20:52:22.367Z,99.90
2018-08-09T20:54:50.850Z,99.90
2018-08-09T20:57:19.425Z,99.90
2018-08-09T20:59:48.064Z,99.90
2018-08-09T21:02:16.676Z,99.90
2018-08-09T21:04:45.192Z,99.90
2018-08-09T21:07:13.779Z,99.90
2018-08-09T21:09:42.250Z,99.90
2018-08-09T21:12:10.902Z,99.90
2018-08-09T21:14:39.467Z,99.90
2018-08-09T21:17:08.280Z,99.90
2018-08-09T21:19:36.820Z,99.90
2018-08-09T21:22:05.667Z,99.90
2018-08-09T21:24:34.290Z,99.90
2018-08-09T21:27:02.865Z,99.90
2018-08-09T21:29:31.469Z,99.90
2018-08-09T21:31:59.989Z,99.90
2018-08-09T21:34:28.540Z,99.90
2018-08-09T21:36:57.301Z,99.90
2018-08-09T21:39:25.867Z,99.90
2018-08-09T21:41:54.456Z,99.90
2018-08-09T21:44:23.034Z,99.90
2018-08-09T21:46:51.566Z,99.90
2018-08-09T21:49:20.164Z,99.90
2018-08-09T21:51:49.031Z,99.90
2018-08-09T21:54:17.582Z,99.90
2018-08-09T21:56:46.069Z,99.90
2018-08-09T21:59:14.871Z,99.90
2018-08-09T22:01:49.867Z,99.90
2018-08-09T22:04:19.422Z,99.90
2018-08-09T22:06:53.246Z,99.90
2018-08-09T22:09:27.106Z,99.90
2018-08-09T22:12:01.166Z,99.90
2018-08-09T22:14:35.644Z,99.90
2018-08-09T22:19:14.348Z,99.90
2018-08-09T22:21:48.442Z,99.90
2018-08-09T22:24:17.067Z,99.90
2018-08-09T22:26:45.617Z,99.90
2018-08-09T22:29:14.379Z,99.90
2018-08-09T22:31:43.010Z,99.90
2018-08-09T22:34:11.780Z,99.90
2018-08-09T22:36:40.318Z,99.90
2018-08-09T22:39:09.831Z,99.90
2018-08-09T22:41:38.518Z,99.90
2018-08-09T22:44:07.140Z,99.90
2018-08-09T22:46:35.707Z,99.90
2018-08-09T22:49:04.349Z,99.90
2018-08-09T22:51:32.973Z,99.90
2018-08-09T22:54:01.583Z,99.90
2018-08-09T22:56:30.480Z,99.90
2018-08-09T22:58:59.085Z,99.90
2018-08-09T23:01:27.677Z,99.90
2018-08-09T23:03:56.502Z,99.90
2018-08-09T23:06:25.227Z,99.90
2018-08-09T23:08:53.755Z,99.90
2018-08-09T23:11:22.410Z,99.90
2018-08-09T23:13:51.146Z,99.90
2018-08-09T23:16:19.782Z,99.90
2018-08-09T23:18:48.301Z,99.90
2018-08-09T23:21:17.042Z,99.90
2018-08-09T23:23:45.555Z,99.90
2018-08-09T23:26:14.379Z,99.90
2018-08-09T23:28:42.966Z,99.90
2018-08-09T23:31:11.660Z,99.90
2018-08-09T23:33:40.259Z,99.90
2018-08-09T23:36:08.936Z,99.90
2018-08-09T23:38:37.557Z,99.90
2018-08-09T23:41:06.158Z,99.90
2018-08-09T23:43:34.708Z,99.90
2018-08-09T23:46:03.367Z,99.90
2018-08-09T23:48:31.979Z,99.90
2018-08-09T23:51:00.868Z,99.90
2018-08-09T23:59:22.546Z,99.90
